ルクセンブルク の空港の天気 - METARとTAF

ルクセンブルク-フィンデル空港 ( ELLX / LUX ) - ルクセンブルク ルクセンブルク
飛行場実況気象(Metar)
観測時間07/07 15:20 CEST (07/07 13:20 UTC)
風向・風速北北西 3m/s
視程10km以上
天気現象
なし
気温20℃
湿度40%
気圧1021hPa
METARELLX 071320Z 33005KT 270V030 CAVOK 20/06 Q1021 NOSIG
過去の天気等 Google飛行場航空写真 Wunderground天気予報

過去48時間のMETAR

飛行場予報(TAF)
発表時間: 7/07 13:00 CEST (7/07 11:00 UTC)
予報対象時間: 7日14時 CEST ~ 8日20時 CEST
風向・風速西南西 5m/s
視程10km以上
全天の4割程度の雲 雲底高度 1220m
7日14時 CEST ~ 7日17時 CEST に徐々に
風向・風速西北西 5m/s
7日21時 CEST ~ 7日23時 CEST に徐々に
風向・風速南西 3m/s
TAF ELLX 071100Z 0712/0818 24010KT 9999 SCT040
BECMG 0712/0715 30010KT
BECMG 0719/0721 23006KT